createdAt,value
2022-08-22T00:02:29.568Z,21.31
2022-08-22T00:03:16.107Z,21.51
2022-08-22T00:05:29.591Z,21.27
2022-08-22T00:08:23.405Z,21.23
2022-08-22T00:10:54.651Z,21.18
2022-08-22T00:13:40.598Z,21.16
2022-08-22T00:16:48.377Z,21.13
2022-08-22T00:19:48.347Z,21.14
2022-08-22T00:22:30.399Z,21.14
2022-08-22T00:25:29.886Z,21.12
2022-08-22T00:28:19.502Z,21.11
2022-08-22T00:30:51.868Z,21.13
2022-08-22T00:33:39.921Z,21.14
2022-08-22T00:36:19.937Z,21.11
2022-08-22T00:39:17.459Z,21.07
2022-08-22T00:42:41.505Z,21.01
2022-08-22T00:45:34.145Z,20.96
2022-08-22T00:48:27.504Z,20.93
2022-08-22T00:51:35.019Z,20.91
2022-08-22T00:54:34.385Z,20.87
2022-08-22T00:57:39.794Z,20.84
2022-08-22T01:00:19.032Z,20.81
2022-08-22T01:03:26.679Z,20.80
2022-08-22T01:06:24.651Z,20.79
2022-08-22T01:09:27.431Z,20.76
2022-08-22T01:12:13.864Z,20.70
2022-08-22T01:15:03.486Z,20.69
2022-08-22T01:18:29.772Z,20.67
2022-08-22T01:21:20.651Z,20.64
2022-08-22T01:24:32.671Z,20.61
2022-08-22T01:27:52.335Z,20.55
2022-08-22T01:30:52.406Z,20.47
2022-08-22T01:34:16.180Z,20.43
2022-08-22T01:37:25.052Z,20.37
2022-08-22T01:40:01.619Z,20.33
2022-08-22T01:42:38.921Z,20.31
2022-08-22T01:45:12.278Z,20.29
2022-08-22T01:47:57.178Z,20.28
2022-08-22T01:50:50.437Z,20.28
2022-08-22T01:53:25.081Z,20.27
2022-08-22T01:56:00.891Z,20.26
2022-08-22T01:58:32.070Z,20.25
2022-08-22T02:01:20.604Z,20.23
2022-08-22T02:04:15.253Z,20.22
2022-08-22T02:07:14.475Z,20.21
2022-08-22T02:10:22.543Z,20.20
2022-08-22T02:13:04.095Z,20.16
2022-08-22T02:15:40.685Z,20.11
2022-08-22T02:18:11.807Z,20.09
2022-08-22T02:20:48.510Z,20.09
2022-08-22T02:23:33.245Z,20.08
2022-08-22T02:26:05.453Z,20.05
2022-08-22T02:28:58.578Z,20.05
2022-08-22T02:31:46.479Z,20.07
2022-08-22T02:34:36.877Z,20.07
2022-08-22T02:37:21.392Z,20.01
2022-08-22T02:40:33.206Z,19.88
2022-08-22T02:43:43.283Z,19.76
2022-08-22T02:46:46.656Z,19.71
2022-08-22T02:49:36.311Z,19.65
2022-08-22T02:52:31.943Z,19.59
2022-08-22T02:56:10.634Z,19.49
2022-08-22T02:59:13.543Z,19.35
2022-08-22T03:01:46.527Z,19.21
2022-08-22T03:04:31.899Z,19.16
2022-08-22T03:07:12.680Z,19.17
2022-08-22T03:09:49.158Z,19.19
2022-08-22T03:12:40.143Z,19.22
2022-08-22T03:15:30.590Z,19.22
2022-08-22T03:18:48.763Z,19.22
2022-08-22T03:21:35.182Z,19.24
2022-08-22T03:24:24.491Z,19.27
2022-08-22T03:27:32.808Z,19.31
2022-08-22T03:30:10.253Z,19.36
2022-08-22T03:32:55.478Z,19.42
2022-08-22T03:35:46.049Z,19.43
2022-08-22T03:38:32.922Z,19.35
2022-08-22T03:41:45.468Z,19.28
2022-08-22T03:44:26.671Z,19.25
2022-08-22T03:47:31.711Z,19.26
2022-08-22T03:50:19.010Z,19.27
2022-08-22T03:53:15.466Z,19.31
2022-08-22T03:56:10.278Z,19.36
2022-08-22T03:59:09.810Z,19.42
2022-08-22T04:02:01.036Z,19.50
2022-08-22T04:04:48.505Z,19.56
2022-08-22T04:07:46.883Z,19.58
2022-08-22T04:10:33.105Z,19.59
2022-08-22T04:13:28.568Z,19.61
2022-08-22T04:17:11.872Z,19.65
2022-08-22T04:20:13.028Z,19.74
2022-08-22T04:23:01.857Z,19.75
2022-08-22T04:25:42.605Z,19.78
2022-08-22T04:28:30.178Z,19.85
2022-08-22T04:31:12.436Z,19.92
2022-08-22T04:33:54.111Z,19.99
2022-08-22T04:36:45.510Z,20.03
2022-08-22T04:39:34.465Z,20.10
2022-08-22T04:42:31.626Z,20.15
2022-08-22T04:45:12.940Z,20.24
2022-08-22T04:48:03.221Z,20.32
2022-08-22T04:50:45.275Z,20.37
2022-08-22T04:53:26.942Z,20.42
2022-08-22T04:56:55.249Z,20.49
2022-08-22T04:59:24.553Z,20.49
2022-08-22T05:02:06.003Z,20.48
2022-08-22T05:05:04.209Z,20.50
2022-08-22T05:07:39.434Z,20.47
2022-08-22T05:10:19.951Z,20.50
2022-08-22T05:12:55.282Z,20.55
2022-08-22T05:15:31.611Z,20.62
2022-08-22T05:18:09.027Z,20.64
2022-08-22T05:20:38.611Z,20.68
2022-08-22T05:23:29.921Z,20.73
2022-08-22T05:26:01.587Z,20.69
2022-08-22T05:28:31.856Z,20.73
2022-08-22T05:31:01.773Z,20.75
2022-08-22T05:33:52.428Z,20.84
2022-08-22T05:36:36.532Z,20.96
2022-08-22T05:39:19.538Z,21.10
2022-08-22T05:41:48.072Z,21.20
2022-08-22T05:44:34.941Z,21.26
2022-08-22T05:47:36.567Z,21.37
2022-08-22T05:50:13.896Z,21.51
2022-08-22T05:53:20.404Z,21.60
2022-08-22T05:56:04.848Z,21.68
2022-08-22T05:59:01.595Z,21.77
2022-08-22T06:01:33.972Z,21.88
2022-08-22T06:04:47.183Z,21.95
2022-08-22T06:07:20.208Z,22.07
2022-08-22T06:09:47.742Z,22.14
2022-08-22T06:12:36.200Z,22.21
2022-08-22T06:15:30.390Z,22.30
2022-08-22T06:18:05.136Z,22.39
2022-08-22T06:21:08.160Z,22.49
2022-08-22T06:23:50.735Z,22.58
2022-08-22T06:26:20.603Z,22.67
2022-08-22T06:28:54.709Z,22.75
2022-08-22T06:31:32.511Z,22.82
2022-08-22T06:34:13.503Z,22.90
2022-08-22T06:36:47.970Z,22.97
2022-08-22T06:39:37.396Z,23.05
2022-08-22T06:42:30.057Z,23.11
2022-08-22T06:45:10.242Z,23.18
2022-08-22T06:48:14.736Z,23.25
2022-08-22T06:50:49.461Z,23.31
2022-08-22T06:53:19.525Z,23.40
2022-08-22T06:56:02.181Z,23.49
2022-08-22T06:58:44.719Z,23.61
2022-08-22T07:01:22.917Z,23.72
2022-08-22T07:03:54.470Z,23.76
2022-08-22T07:06:49.840Z,23.93
2022-08-22T07:09:28.791Z,24.03
2022-08-22T07:11:59.955Z,24.14
2022-08-22T07:14:49.073Z,24.17
2022-08-22T07:17:25.458Z,24.29
2022-08-22T07:20:04.403Z,24.49
2022-08-22T07:22:37.033Z,24.55
2022-08-22T07:25:14.961Z,24.63
2022-08-22T07:28:03.730Z,24.73
2022-08-22T07:31:02.979Z,24.83
2022-08-22T07:33:46.998Z,24.97
2022-08-22T07:36:31.042Z,25.07
2022-08-22T07:39:29.549Z,25.13
2022-08-22T07:42:22.224Z,25.23
2022-08-22T07:45:03.983Z,25.38
2022-08-22T07:47:50.409Z,25.47
2022-08-22T07:50:24.732Z,25.58
2022-08-22T07:52:53.366Z,25.68
2022-08-22T07:55:24.895Z,25.82
2022-08-22T07:58:01.615Z,26.00
2022-08-22T08:00:32.239Z,26.10
2022-08-22T08:03:06.654Z,26.19
2022-08-22T08:05:37.245Z,26.29
2022-08-22T08:08:33.080Z,26.37
2022-08-22T08:11:01.153Z,26.55
2022-08-22T08:13:46.511Z,26.66
2022-08-22T08:16:33.950Z,26.72
2022-08-22T08:19:01.955Z,26.81
2022-08-22T08:21:49.379Z,26.90
2022-08-22T08:24:45.132Z,27.06
2022-08-22T08:27:36.996Z,27.14
2022-08-22T08:30:18.887Z,27.23
2022-08-22T08:32:57.440Z,27.37
2022-08-22T08:36:03.240Z,27.47
2022-08-22T08:38:47.655Z,27.51
2022-08-22T08:41:28.352Z,27.57
2022-08-22T08:44:18.708Z,27.66
2022-08-22T08:47:20.575Z,27.79
2022-08-22T08:50:09.976Z,27.92
2022-08-22T08:52:52.550Z,27.98
2022-08-22T08:55:54.548Z,28.04
2022-08-22T08:59:19.948Z,28.06
2022-08-22T09:02:42.282Z,28.10
2022-08-22T09:05:55.696Z,28.19
2022-08-22T09:09:01.882Z,28.26
2022-08-22T09:11:53.929Z,28.30
2022-08-22T09:14:54.305Z,28.36
2022-08-22T09:18:13.473Z,28.60
2022-08-22T09:21:30.406Z,28.78
2022-08-22T09:24:32.627Z,28.75
2022-08-22T09:27:08.589Z,28.68
2022-08-22T09:29:54.616Z,28.66
2022-08-22T09:32:55.769Z,28.71
2022-08-22T09:36:00.946Z,28.78
2022-08-22T09:38:48.010Z,28.85
2022-08-22T09:41:51.751Z,28.96
2022-08-22T09:44:30.233Z,28.91
2022-08-22T09:47:13.948Z,28.83
2022-08-22T09:49:55.958Z,28.83
2022-08-22T09:53:05.342Z,28.86
2022-08-22T09:55:40.871Z,28.81
2022-08-22T09:58:47.470Z,28.84
2022-08-22T10:02:00.249Z,28.90
2022-08-22T10:05:00.248Z,28.96
2022-08-22T10:07:37.322Z,29.04
2022-08-22T10:10:34.806Z,29.11
2022-08-22T10:13:11.388Z,29.19
2022-08-22T10:15:45.490Z,29.02
2022-08-22T10:18:34.427Z,28.90
2022-08-22T10:21:14.644Z,28.81
2022-08-22T10:24:00.697Z,28.83
2022-08-22T10:26:38.970Z,28.90
2022-08-22T10:29:51.726Z,28.89
2022-08-22T10:32:57.946Z,28.95
2022-08-22T10:35:38.841Z,28.98
2022-08-22T10:38:44.209Z,29.01
2022-08-22T10:41:52.523Z,29.03
2022-08-22T10:44:41.759Z,29.05
2022-08-22T10:47:29.214Z,29.17
2022-08-22T10:50:31.109Z,29.20
2022-08-22T10:53:29.826Z,29.11
2022-08-22T10:56:21.761Z,29.11
2022-08-22T10:58:59.505Z,29.12
2022-08-22T11:01:37.980Z,29.16
2022-08-22T11:04:28.500Z,29.10
2022-08-22T11:07:44.575Z,29.04
2022-08-22T11:10:32.729Z,29.07
2022-08-22T11:13:21.568Z,29.10
2022-08-22T11:16:19.210Z,29.13
2022-08-22T11:19:30.717Z,29.22
2022-08-22T11:22:23.814Z,29.31
2022-08-22T11:25:05.288Z,29.37
2022-08-22T11:28:01.078Z,29.48
2022-08-22T11:30:54.830Z,29.56
2022-08-22T11:33:47.229Z,29.71
2022-08-22T11:36:41.515Z,29.79
2022-08-22T11:40:05.674Z,29.90
2022-08-22T11:43:03.172Z,30.04
2022-08-22T11:45:40.477Z,30.08
2022-08-22T11:48:38.501Z,30.15
2022-08-22T11:51:25.342Z,30.22
2022-08-22T11:54:10.586Z,30.27
2022-08-22T11:56:52.302Z,30.29
2022-08-22T12:00:21.075Z,30.31
2022-08-22T12:03:32.849Z,30.23
2022-08-22T12:06:10.696Z,30.21
2022-08-22T12:08:43.099Z,30.16
2022-08-22T12:11:31.945Z,30.09
2022-08-22T12:14:06.642Z,29.98
2022-08-22T12:17:08.899Z,29.91
2022-08-22T12:20:17.337Z,29.83
2022-08-22T12:23:16.660Z,29.77
2022-08-22T12:26:16.441Z,29.77
2022-08-22T12:29:40.112Z,29.74
2022-08-22T12:32:34.139Z,29.71
2022-08-22T12:35:14.509Z,29.71
2022-08-22T12:38:28.204Z,29.71
2022-08-22T12:41:28.124Z,29.71
2022-08-22T12:44:50.607Z,29.72
2022-08-22T12:48:11.680Z,29.81
2022-08-22T12:50:55.694Z,29.88
2022-08-22T12:53:32.179Z,29.93
2022-08-22T12:56:11.773Z,29.98
2022-08-22T12:59:32.979Z,30.07
2022-08-22T13:02:13.390Z,30.02
2022-08-22T13:05:07.717Z,30.01
2022-08-22T13:07:36.923Z,30.02
2022-08-22T13:10:37.397Z,30.00
2022-08-22T13:13:12.373Z,30.03
2022-08-22T13:15:57.708Z,29.97
2022-08-22T13:18:35.835Z,29.99
2022-08-22T13:21:06.551Z,30.02
2022-08-22T13:23:41.922Z,30.06
2022-08-22T13:26:33.191Z,30.08
2022-08-22T13:29:25.842Z,30.13
2022-08-22T13:31:59.926Z,30.15
2022-08-22T13:34:45.339Z,30.19
2022-08-22T13:37:24.376Z,30.22
2022-08-22T13:39:56.126Z,30.29
2022-08-22T13:42:30.161Z,30.32
2022-08-22T13:45:05.578Z,30.26
2022-08-22T13:47:39.706Z,30.32
2022-08-22T13:50:21.119Z,30.35
2022-08-22T13:53:05.569Z,30.40
2022-08-22T13:55:55.416Z,30.45
2022-08-22T13:58:40.553Z,30.51
2022-08-22T14:02:06.210Z,30.55
2022-08-22T14:04:39.085Z,30.60
2022-08-22T14:07:08.340Z,30.61
2022-08-22T14:10:05.109Z,30.63
2022-08-22T14:13:11.300Z,30.61
2022-08-22T14:15:45.426Z,30.60
2022-08-22T14:18:30.494Z,30.58
2022-08-22T14:21:28.605Z,30.58
2022-08-22T14:24:45.307Z,30.55
2022-08-22T14:27:26.748Z,30.51
2022-08-22T14:30:05.067Z,30.49
2022-08-22T14:32:50.694Z,30.47
2022-08-22T14:35:35.060Z,30.44
2022-08-22T14:38:35.847Z,30.39
2022-08-22T14:41:21.524Z,30.35
2022-08-22T14:44:08.989Z,30.30
2022-08-22T14:46:41.858Z,30.30
2022-08-22T14:49:18.817Z,30.29
2022-08-22T14:51:59.817Z,30.29
2022-08-22T14:54:31.214Z,30.25
2022-08-22T14:57:01.879Z,30.22
2022-08-22T14:59:50.047Z,30.22
2022-08-22T15:02:29.813Z,30.12
2022-08-22T15:05:11.257Z,30.12
2022-08-22T15:07:38.926Z,30.03
2022-08-22T15:10:33.298Z,29.98
2022-08-22T15:13:09.333Z,29.89
2022-08-22T15:15:52.804Z,29.84
2022-08-22T15:18:27.702Z,29.77
2022-08-22T15:21:10.164Z,29.78
2022-08-22T15:23:45.353Z,29.77
2022-08-22T15:26:39.808Z,29.76
2022-08-22T15:29:26.551Z,29.75
2022-08-22T15:32:00.381Z,29.72
2022-08-22T15:34:39.161Z,29.72
2022-08-22T15:37:18.667Z,29.72
2022-08-22T15:40:12.650Z,29.73
2022-08-22T15:42:50.093Z,29.73
2022-08-22T15:45:34.743Z,29.73
2022-08-22T15:48:09.350Z,29.71
2022-08-22T15:50:58.382Z,29.68
2022-08-22T15:54:24.440Z,29.66
2022-08-22T15:56:52.961Z,29.64
2022-08-22T15:59:48.358Z,29.62
2022-08-22T16:03:03.482Z,29.33
2022-08-22T16:05:56.631Z,28.95
2022-08-22T16:08:47.108Z,28.53
2022-08-22T16:11:33.434Z,28.15
2022-08-22T16:14:23.851Z,27.78
2022-08-22T16:16:57.184Z,27.61
2022-08-22T16:19:27.539Z,27.44
2022-08-22T16:21:57.972Z,27.21
2022-08-22T16:24:25.299Z,27.07
2022-08-22T16:26:53.323Z,26.98
2022-08-22T16:29:20.777Z,26.90
2022-08-22T16:31:48.031Z,26.84
2022-08-22T16:34:17.446Z,26.75
2022-08-22T16:37:03.206Z,26.62
2022-08-22T16:40:14.703Z,26.56
2022-08-22T16:42:51.340Z,26.43
2022-08-22T16:45:30.720Z,26.39
2022-08-22T16:47:59.007Z,26.29
2022-08-22T16:50:35.276Z,26.13
2022-08-22T16:53:48.633Z,26.10
2022-08-22T16:56:39.534Z,26.05
2022-08-22T16:59:40.596Z,25.97
2022-08-22T17:02:32.920Z,25.90
2022-08-22T17:05:42.500Z,25.82
2022-08-22T17:08:34.011Z,25.73
2022-08-22T17:11:19.872Z,25.70
2022-08-22T17:14:09.004Z,25.68
2022-08-22T17:16:54.194Z,25.63
2022-08-22T17:19:40.102Z,25.55
2022-08-22T17:22:37.196Z,25.44
2022-08-22T17:25:22.889Z,25.38
2022-08-22T17:28:19.437Z,25.34
2022-08-22T17:30:56.162Z,25.22
2022-08-22T17:33:51.886Z,25.21
2022-08-22T17:36:44.375Z,25.17
2022-08-22T17:39:41.727Z,25.15
2022-08-22T17:42:45.888Z,25.14
2022-08-22T17:45:32.634Z,25.13
2022-08-22T17:48:40.438Z,25.10
2022-08-22T17:51:34.427Z,25.03
2022-08-22T17:54:32.641Z,24.98
2022-08-22T17:57:21.613Z,24.92
2022-08-22T17:59:57.461Z,24.87
2022-08-22T18:02:39.459Z,24.87
2022-08-22T18:05:27.216Z,24.82
2022-08-22T18:11:44.944Z,24.71
2022-08-22T18:14:39.188Z,24.64
2022-08-22T18:17:49.242Z,24.59
2022-08-22T18:21:02.702Z,24.57
2022-08-22T18:23:48.946Z,24.53
2022-08-22T18:26:34.887Z,24.50
2022-08-22T18:29:11.726Z,24.45
2022-08-22T18:32:21.475Z,24.42
2022-08-22T18:35:21.353Z,24.41
2022-08-22T18:38:24.287Z,24.39
2022-08-22T18:41:08.943Z,24.37
2022-08-22T18:43:47.838Z,24.38
2022-08-22T18:46:46.286Z,24.39
2022-08-22T18:49:24.089Z,24.23
2022-08-22T18:52:08.768Z,23.81
2022-08-22T18:55:11.648Z,23.36
2022-08-22T18:58:02.430Z,22.92
2022-08-22T19:00:52.027Z,22.62
2022-08-22T19:03:40.453Z,22.41
2022-08-22T19:06:45.233Z,22.23
2022-08-22T19:09:48.473Z,22.14
2022-08-22T19:12:38.759Z,22.08
2022-08-22T19:15:55.106Z,22.06
2022-08-22T19:18:48.481Z,22.06
2022-08-22T19:21:52.437Z,22.05
2022-08-22T19:24:19.707Z,22.00
2022-08-22T19:26:53.086Z,21.95
2022-08-22T19:29:23.868Z,21.94
2022-08-22T19:32:05.773Z,21.96
2022-08-22T19:34:46.947Z,21.95
2022-08-22T19:37:32.795Z,21.91
2022-08-22T19:40:38.221Z,21.89
2022-08-22T19:43:30.181Z,21.89
2022-08-22T19:46:03.195Z,21.91
2022-08-22T19:48:47.590Z,21.90
2022-08-22T19:51:28.404Z,21.87
2022-08-22T19:54:19.905Z,21.88
2022-08-22T19:57:14.019Z,21.88
2022-08-22T19:59:50.834Z,21.82
2022-08-22T20:03:05.709Z,21.74
2022-08-22T20:06:22.146Z,21.60
2022-08-22T20:09:32.073Z,21.44
2022-08-22T20:12:25.865Z,21.32
2022-08-22T20:14:53.411Z,21.18
2022-08-22T20:17:26.758Z,21.07
2022-08-22T20:20:33.955Z,20.98
2022-08-22T20:23:03.087Z,20.95
2022-08-22T20:25:51.432Z,20.93
2022-08-22T20:28:46.428Z,20.93
2022-08-22T20:31:25.291Z,20.95
2022-08-22T20:34:00.643Z,20.96
2022-08-22T20:36:29.476Z,20.97
2022-08-22T20:39:08.965Z,20.95
2022-08-22T20:42:13.441Z,20.95
2022-08-22T20:44:44.403Z,20.95
2022-08-22T20:47:26.038Z,20.98
2022-08-22T20:50:03.796Z,20.98
2022-08-22T20:52:43.969Z,20.99
2022-08-22T20:55:31.614Z,21.00
2022-08-22T20:58:04.862Z,20.98
2022-08-22T21:00:42.160Z,20.99
2022-08-22T21:03:31.739Z,20.97
2022-08-22T21:06:16.444Z,20.96
2022-08-22T21:08:46.795Z,20.96
2022-08-22T21:11:40.477Z,20.97
2022-08-22T21:14:20.457Z,20.89
2022-08-22T21:16:48.500Z,20.84
2022-08-22T21:19:29.755Z,20.74
2022-08-22T21:22:32.233Z,20.72
2022-08-22T21:25:00.829Z,20.67
2022-08-22T21:27:32.292Z,20.63
2022-08-22T21:30:05.304Z,20.58
2022-08-22T21:32:41.646Z,20.54
2022-08-22T21:35:28.157Z,20.57
2022-08-22T21:37:56.122Z,20.52
2022-08-22T21:40:35.213Z,20.52
2022-08-22T21:43:10.391Z,20.50
2022-08-22T21:45:38.950Z,20.48
2022-08-22T21:48:54.729Z,20.47
2022-08-22T21:51:41.386Z,20.45
2022-08-22T21:54:31.432Z,20.47
2022-08-22T21:57:15.588Z,20.46
2022-08-22T21:59:51.763Z,20.43
2022-08-22T22:02:40.565Z,20.43
2022-08-22T22:05:11.508Z,20.43
2022-08-22T22:07:42.751Z,20.42
2022-08-22T22:10:14.624Z,20.44
2022-08-22T22:12:44.431Z,20.44
2022-08-22T22:15:17.120Z,20.44
2022-08-22T22:17:45.022Z,20.42
2022-08-22T22:20:15.332Z,20.43
2022-08-22T22:22:46.487Z,20.45
2022-08-22T22:25:40.188Z,20.46
2022-08-22T22:28:15.277Z,20.45
2022-08-22T22:30:44.744Z,20.41
2022-08-22T22:33:12.529Z,20.45
2022-08-22T22:35:40.601Z,20.46
2022-08-22T22:38:08.568Z,20.44
2022-08-22T22:40:36.182Z,20.41
2022-08-22T22:43:03.784Z,20.40
2022-08-22T22:45:31.214Z,20.39
2022-08-22T22:47:58.970Z,20.37
2022-08-22T22:50:26.556Z,20.40
2022-08-22T22:52:54.250Z,20.38
2022-08-22T22:55:24.412Z,20.37
2022-08-22T22:57:59.162Z,20.38
2022-08-22T23:00:31.729Z,20.34
2022-08-22T23:03:05.817Z,20.34
2022-08-22T23:05:34.146Z,20.34
2022-08-22T23:08:02.640Z,20.39
2022-08-22T23:10:31.291Z,20.38
2022-08-22T23:12:59.402Z,20.36
2022-08-22T23:15:27.932Z,20.36
2022-08-22T23:17:55.616Z,20.38
2022-08-22T23:20:24.143Z,20.42
2022-08-22T23:22:51.613Z,20.45
2022-08-22T23:25:19.173Z,20.43
2022-08-22T23:27:52.126Z,20.40
2022-08-22T23:30:21.330Z,20.39
2022-08-22T23:32:48.734Z,20.41
2022-08-22T23:35:16.493Z,20.41
2022-08-22T23:37:43.957Z,20.38
2022-08-22T23:40:12.446Z,20.37
2022-08-22T23:42:40.013Z,20.39
2022-08-22T23:45:07.635Z,20.36
2022-08-22T23:47:34.929Z,20.35
2022-08-22T23:50:04.323Z,20.35
2022-08-22T23:52:34.003Z,20.35
2022-08-22T23:55:01.456Z,20.33
2022-08-22T23:57:29.431Z,20.30
2022-08-22T23:59:58.457Z,20.27
